createdAt,value
2022-09-16T00:01:00.321Z,8.10
2022-09-16T00:03:28.602Z,6.60
2022-09-16T00:05:56.121Z,6.95
2022-09-16T00:08:23.835Z,6.50
2022-09-16T00:10:51.477Z,12.07
2022-09-16T00:13:20.125Z,10.10
2022-09-16T00:15:51.472Z,6.85
2022-09-16T00:18:23.384Z,7.18
2022-09-16T00:20:54.992Z,7.22
2022-09-16T00:23:22.523Z,6.90
2022-09-16T00:25:55.076Z,6.38
2022-09-16T00:28:26.017Z,5.22
2022-09-16T00:30:53.770Z,6.50
2022-09-16T00:33:21.566Z,5.88
2022-09-16T00:35:49.290Z,4.85
2022-09-16T00:38:16.772Z,5.88
2022-09-16T00:40:47.214Z,5.55
2022-09-16T00:43:18.134Z,6.30
2022-09-16T00:46:00.753Z,5.53
2022-09-16T00:48:31.079Z,5.20
2022-09-16T00:51:04.644Z,5.10
2022-09-16T00:53:52.254Z,5.93
2022-09-16T00:56:24.347Z,5.30
2022-09-16T00:58:56.895Z,5.85
2022-09-16T01:01:24.451Z,2.80
2022-09-16T01:03:57.091Z,4.55
2022-09-16T01:06:27.072Z,6.60
2022-09-16T01:08:56.699Z,8.23
2022-09-16T01:11:25.025Z,6.13
2022-09-16T01:13:53.282Z,4.90
2022-09-16T01:16:49.647Z,4.25
2022-09-16T01:19:50.366Z,4.45
2022-09-16T01:22:44.993Z,3.03
2022-09-16T01:26:09.795Z,3.50
2022-09-16T01:29:20.630Z,3.47
2022-09-16T01:32:29.705Z,1.77
2022-09-16T01:35:31.822Z,3.83
2022-09-16T01:38:54.617Z,3.28
2022-09-16T01:41:47.136Z,3.15
2022-09-16T01:44:55.807Z,3.20
2022-09-16T01:48:10.678Z,3.92
2022-09-16T01:50:49.078Z,3.67
2022-09-16T01:53:35.393Z,3.40
2022-09-16T01:56:27.476Z,3.10
2022-09-16T01:59:09.869Z,2.50
2022-09-16T02:02:04.660Z,5.75
2022-09-16T02:04:52.173Z,4.82
2022-09-16T02:07:26.415Z,8.90
2022-09-16T02:10:00.341Z,4.73
2022-09-16T02:12:34.406Z,4.22
2022-09-16T02:15:09.859Z,4.57
2022-09-16T02:17:44.815Z,3.88
2022-09-16T02:20:20.191Z,3.38
2022-09-16T02:22:54.983Z,4.70
2022-09-16T02:25:23.971Z,1.90
2022-09-16T02:27:54.417Z,5.47
2022-09-16T02:30:24.126Z,3.35
2022-09-16T02:33:08.140Z,3.08
2022-09-16T02:35:37.342Z,2.85
2022-09-16T02:38:14.816Z,2.83
2022-09-16T02:41:14.642Z,1.70
2022-09-16T02:43:46.547Z,3.35
2022-09-16T02:46:32.332Z,2.97
2022-09-16T02:49:54.702Z,2.30
2022-09-16T02:52:53.749Z,3.10
2022-09-16T02:55:34.172Z,3.20
2022-09-16T02:58:01.677Z,3.03
2022-09-16T03:00:37.741Z,2.15
2022-09-16T03:03:05.352Z,2.38
2022-09-16T03:05:33.080Z,3.95
2022-09-16T03:08:04.143Z,2.05
2022-09-16T03:10:43.103Z,3.15
2022-09-16T03:13:29.278Z,1.92
2022-09-16T03:16:31.753Z,4.68
2022-09-16T03:19:35.885Z,2.83
2022-09-16T03:22:47.536Z,1.73
2022-09-16T03:25:29.774Z,2.58
2022-09-16T03:28:29.512Z,2.95
2022-09-16T03:31:10.855Z,1.65
2022-09-16T03:34:01.511Z,3.17
2022-09-16T03:36:36.654Z,3.33
2022-09-16T03:41:34.155Z,1.10
2022-09-16T03:44:04.220Z,2.17
2022-09-16T03:46:32.114Z,2.70
2022-09-16T03:48:59.900Z,2.83
2022-09-16T03:51:27.781Z,1.58
2022-09-16T03:53:55.576Z,3.78
2022-09-16T03:56:25.444Z,1.88
2022-09-16T03:58:53.110Z,1.42
2022-09-16T04:01:21.668Z,2.50
2022-09-16T04:03:49.294Z,2.22
2022-09-16T04:06:16.690Z,2.03
2022-09-16T04:08:45.307Z,3.50
2022-09-16T04:11:12.825Z,1.88
2022-09-16T04:13:40.217Z,1.80
2022-09-16T04:16:07.965Z,3.45
2022-09-16T04:18:35.958Z,1.75
2022-09-16T04:21:05.114Z,1.90
2022-09-16T04:23:32.937Z,2.38
2022-09-16T04:26:03.708Z,1.17
2022-09-16T04:28:33.818Z,1.45
2022-09-16T04:31:08.944Z,2.45
2022-09-16T04:36:13.825Z,1.63
2022-09-16T04:38:43.849Z,1.40
2022-09-16T04:41:20.782Z,3.20
2022-09-16T04:43:53.240Z,2.08
2022-09-16T04:46:21.161Z,1.40
2022-09-16T04:48:50.535Z,5.15
2022-09-16T04:51:19.939Z,1.88
2022-09-16T04:53:47.750Z,3.88
2022-09-16T04:56:22.315Z,7.53
2022-09-16T04:58:54.256Z,3.22
2022-09-16T05:01:28.555Z,7.05
2022-09-16T05:04:00.686Z,5.67
2022-09-16T05:06:33.663Z,8.10
2022-09-16T05:09:01.507Z,9.65
2022-09-16T05:11:33.789Z,8.50
2022-09-16T05:14:04.005Z,9.60
2022-09-16T05:16:33.197Z,6.22
2022-09-16T05:19:05.074Z,13.50
2022-09-16T05:21:36.725Z,12.30
2022-09-16T05:24:10.130Z,7.78
2022-09-16T05:26:40.587Z,8.95
2022-09-16T05:29:15.751Z,5.13
2022-09-16T05:31:47.809Z,11.98
2022-09-16T05:34:18.608Z,7.63
2022-09-16T05:36:48.077Z,12.02
2022-09-16T05:39:24.107Z,11.15
2022-09-16T05:41:58.531Z,5.43
2022-09-16T05:44:28.173Z,9.55
2022-09-16T05:46:56.223Z,9.25
2022-09-16T05:49:24.064Z,7.18
2022-09-16T05:51:52.672Z,16.65
2022-09-16T05:54:23.557Z,20.40
2022-09-16T05:56:51.499Z,13.10
2022-09-16T05:59:18.999Z,14.88
2022-09-16T06:01:47.051Z,31.30
2022-09-16T06:04:16.182Z,10.57
2022-09-16T06:06:46.349Z,11.80
2022-09-16T06:09:18.024Z,11.52
2022-09-16T06:11:49.014Z,11.32
2022-09-16T06:14:17.730Z,8.32
2022-09-16T06:16:45.332Z,11.60
2022-09-16T06:19:16.229Z,9.02
2022-09-16T06:21:45.555Z,13.60
2022-09-16T06:24:15.252Z,10.23
2022-09-16T06:26:45.345Z,11.35
2022-09-16T06:29:14.081Z,11.00
2022-09-16T06:31:41.998Z,6.10
2022-09-16T06:34:15.726Z,8.13
2022-09-16T06:36:45.460Z,11.18
2022-09-16T06:39:15.832Z,6.90
2022-09-16T06:41:43.865Z,7.25
2022-09-16T06:44:11.328Z,5.22
2022-09-16T06:46:38.945Z,8.32
2022-09-16T06:49:06.827Z,5.72
2022-09-16T06:51:42.333Z,5.10
2022-09-16T06:54:10.981Z,4.10
2022-09-16T06:56:39.873Z,4.85
2022-09-16T06:59:08.066Z,6.25
2022-09-16T07:01:35.910Z,5.68
2022-09-16T07:04:08.322Z,6.38
2022-09-16T07:07:08.810Z,10.15
2022-09-16T07:09:24.283Z,8.23
2022-09-16T07:11:51.594Z,3.78
2022-09-16T07:14:19.026Z,5.82
2022-09-16T07:16:46.943Z,4.30
2022-09-16T07:19:14.560Z,5.60
2022-09-16T07:21:42.305Z,7.32
2022-09-16T07:24:12.882Z,8.55
2022-09-16T07:26:42.533Z,7.57
2022-09-16T07:29:17.329Z,8.98
2022-09-16T07:31:44.862Z,5.05
2022-09-16T07:34:13.316Z,2.95
2022-09-16T07:36:47.488Z,6.07
2022-09-16T07:39:17.289Z,5.43
2022-09-16T07:41:46.633Z,4.63
2022-09-16T07:44:19.617Z,5.53
2022-09-16T07:46:48.395Z,10.23
2022-09-16T07:49:21.542Z,15.65
2022-09-16T07:51:49.304Z,10.70
2022-09-16T07:54:20.227Z,11.63
2022-09-16T07:56:47.925Z,11.45
2022-09-16T07:59:19.323Z,11.98
2022-09-16T08:01:49.926Z,12.18
2022-09-16T08:04:19.109Z,12.23
2022-09-16T08:06:46.697Z,9.30
2022-09-16T08:12:05.874Z,9.15
2022-09-16T08:14:33.596Z,8.30
2022-09-16T08:17:02.201Z,8.95
2022-09-16T08:19:29.737Z,9.80
2022-09-16T08:21:57.256Z,9.38
2022-09-16T08:24:24.721Z,9.00
2022-09-16T08:26:52.123Z,5.40
2022-09-16T08:29:19.564Z,7.70
2022-09-16T08:31:47.137Z,8.18
2022-09-16T08:34:16.106Z,5.20
2022-09-16T08:36:43.785Z,6.68
2022-09-16T08:39:12.328Z,8.35
2022-09-16T08:42:10.193Z,4.30
2022-09-16T08:44:53.588Z,5.45
2022-09-16T08:47:35.917Z,4.80
2022-09-16T08:50:06.830Z,4.68
2022-09-16T08:52:39.639Z,4.60
2022-09-16T08:55:32.884Z,5.20
2022-09-16T08:58:08.143Z,8.55
2022-09-16T09:00:36.326Z,4.00
2022-09-16T09:03:38.721Z,6.53
2022-09-16T09:07:05.964Z,6.60
2022-09-16T09:09:50.394Z,11.23
2022-09-16T09:13:22.511Z,6.68
2022-09-16T09:16:06.846Z,12.55
2022-09-16T09:18:57.861Z,14.55
2022-09-16T09:22:16.754Z,4.70
2022-09-16T09:25:05.882Z,15.00
2022-09-16T09:27:52.208Z,11.73
2022-09-16T09:30:28.631Z,14.48
2022-09-16T09:33:22.380Z,4.47
2022-09-16T09:36:07.935Z,4.45
2022-09-16T09:38:53.901Z,2.92
2022-09-16T09:41:51.223Z,13.75
2022-09-16T09:44:48.442Z,7.93
2022-09-16T09:47:47.407Z,4.53
2022-09-16T09:50:34.470Z,6.60
2022-09-16T09:53:23.957Z,9.13
2022-09-16T09:56:08.956Z,4.47
2022-09-16T09:59:24.172Z,7.97
2022-09-16T10:01:57.222Z,6.45
2022-09-16T10:04:25.156Z,5.50
2022-09-16T10:06:56.123Z,9.77
2022-09-16T10:09:25.176Z,7.53
2022-09-16T10:11:57.074Z,7.97
2022-09-16T10:14:37.680Z,6.72
2022-09-16T10:17:17.678Z,4.90
2022-09-16T10:20:02.364Z,4.75
2022-09-16T10:22:33.335Z,5.95
2022-09-16T10:25:04.693Z,10.90
2022-09-16T10:27:36.262Z,9.18
2022-09-16T10:33:01.683Z,7.88
2022-09-16T10:35:40.655Z,6.35
2022-09-16T10:38:12.257Z,8.15
2022-09-16T10:40:54.517Z,5.05
2022-09-16T10:43:23.464Z,11.32
2022-09-16T10:45:54.585Z,7.53
2022-09-16T10:48:30.956Z,6.25
2022-09-16T10:51:33.736Z,6.68
2022-09-16T10:54:06.357Z,6.68
2022-09-16T10:56:51.545Z,7.28
2022-09-16T10:59:19.191Z,8.60
2022-09-16T11:02:32.661Z,5.70
2022-09-16T11:05:38.837Z,5.82
2022-09-16T11:12:01.003Z,2.95
2022-09-16T11:15:12.357Z,7.60
2022-09-16T11:18:11.991Z,5.97
2022-09-16T11:21:01.496Z,4.50
2022-09-16T11:23:54.138Z,8.60
2022-09-16T11:27:22.343Z,6.22
2022-09-16T11:30:00.680Z,7.18
2022-09-16T11:33:04.994Z,7.93
2022-09-16T11:35:56.947Z,6.25
2022-09-16T11:39:03.641Z,4.50
2022-09-16T11:42:27.524Z,8.15
2022-09-16T11:45:28.669Z,10.35
2022-09-16T11:48:30.286Z,10.13
2022-09-16T11:51:42.784Z,7.68
2022-09-16T11:54:43.574Z,8.45
2022-09-16T11:57:19.765Z,5.22
2022-09-16T11:59:57.464Z,7.25
2022-09-16T12:03:10.989Z,6.32
2022-09-16T12:05:54.877Z,6.95
2022-09-16T12:08:59.176Z,7.20
2022-09-16T12:11:52.913Z,12.63
2022-09-16T12:14:34.660Z,9.13
2022-09-16T12:17:17.774Z,10.07
2022-09-16T12:19:58.926Z,8.95
2022-09-16T12:22:34.386Z,5.53
2022-09-16T12:25:16.656Z,9.30
2022-09-16T12:27:58.874Z,6.25
2022-09-16T12:30:43.087Z,8.30
2022-09-16T12:33:28.127Z,6.57
2022-09-16T12:36:08.839Z,12.60
2022-09-16T12:38:36.564Z,12.00
2022-09-16T12:41:41.370Z,8.77
2022-09-16T12:44:34.315Z,6.43
2022-09-16T12:47:33.011Z,7.82
2022-09-16T12:51:00.610Z,7.68
2022-09-16T12:53:31.132Z,9.10
2022-09-16T12:56:32.580Z,10.63
2022-09-16T12:59:30.864Z,9.65
2022-09-16T13:02:08.011Z,9.88
2022-09-16T13:04:45.844Z,7.22
2022-09-16T13:07:27.964Z,12.52
2022-09-16T13:10:54.683Z,7.28
2022-09-16T13:13:39.052Z,12.38
2022-09-16T13:16:09.117Z,9.02
2022-09-16T13:18:46.170Z,12.20
2022-09-16T13:21:27.926Z,13.10
2022-09-16T13:24:11.502Z,7.22
2022-09-16T13:26:45.001Z,6.70
2022-09-16T13:29:38.500Z,14.43
2022-09-16T13:32:06.336Z,7.45
2022-09-16T13:34:33.772Z,6.15
2022-09-16T13:37:01.172Z,9.27
2022-09-16T13:39:34.504Z,12.25
2022-09-16T13:42:20.821Z,9.38
2022-09-16T13:44:48.456Z,9.15
2022-09-16T13:47:27.813Z,6.78
2022-09-16T13:50:16.683Z,6.35
2022-09-16T13:52:44.816Z,7.63
2022-09-16T13:55:26.147Z,10.45
2022-09-16T13:58:00.978Z,10.05
2022-09-16T14:00:41.036Z,9.15
2022-09-16T14:03:54.061Z,8.55
2022-09-16T14:06:49.114Z,7.22
2022-09-16T14:09:54.119Z,15.33
2022-09-16T14:12:57.954Z,7.80
2022-09-16T14:15:26.437Z,8.07
2022-09-16T14:17:59.807Z,6.13
2022-09-16T14:20:28.015Z,5.93
2022-09-16T14:23:19.186Z,13.98
2022-09-16T14:25:46.363Z,10.63
2022-09-16T14:28:27.964Z,15.13
2022-09-16T14:31:07.644Z,17.80
2022-09-16T14:33:43.940Z,18.10
2022-09-16T14:36:20.365Z,14.65
2022-09-16T14:39:08.944Z,11.10
2022-09-16T14:41:51.570Z,10.95
2022-09-16T14:44:41.273Z,13.25
2022-09-16T14:47:39.799Z,16.77
2022-09-16T14:50:18.816Z,11.45
2022-09-16T14:53:06.385Z,14.27
2022-09-16T14:55:40.299Z,12.25
2022-09-16T14:58:11.915Z,19.42
2022-09-16T15:00:45.593Z,18.23
2022-09-16T15:03:49.263Z,12.02
2022-09-16T15:06:29.510Z,6.00
2022-09-16T15:09:17.969Z,15.05
2022-09-16T15:11:52.309Z,12.13
2022-09-16T15:14:20.662Z,12.63
2022-09-16T15:16:55.145Z,12.18
2022-09-16T15:19:34.671Z,6.97
2022-09-16T15:22:03.573Z,7.70
2022-09-16T15:24:34.354Z,12.35
2022-09-16T15:27:02.894Z,7.05
2022-09-16T15:29:35.392Z,5.43
2022-09-16T15:32:24.363Z,9.07
2022-09-16T15:35:30.889Z,8.07
2022-09-16T15:37:58.556Z,8.23
2022-09-16T15:40:29.241Z,6.63
2022-09-16T15:43:19.033Z,10.48
2022-09-16T15:46:00.038Z,4.50
2022-09-16T15:48:35.651Z,7.25
2022-09-16T15:51:29.266Z,9.40
2022-09-16T15:54:22.151Z,8.02
2022-09-16T15:57:11.458Z,8.35
2022-09-16T15:59:47.465Z,7.28
2022-09-16T16:02:49.717Z,4.30
2022-09-16T16:05:28.333Z,5.57
2022-09-16T16:08:08.968Z,5.05
2022-09-16T16:10:40.283Z,5.55
2022-09-16T16:13:08.155Z,5.57
2022-09-16T16:15:38.332Z,7.00
2022-09-16T16:18:10.897Z,10.30
2022-09-16T16:20:39.155Z,7.20
2022-09-16T16:23:07.389Z,7.13
2022-09-16T16:25:34.858Z,5.93
2022-09-16T16:28:02.638Z,6.13
2022-09-16T16:30:31.702Z,8.95
2022-09-16T16:32:59.154Z,7.50
2022-09-16T16:35:26.481Z,4.57
2022-09-16T16:37:53.761Z,1.95
2022-09-16T16:40:21.370Z,4.25
2022-09-16T16:42:49.000Z,2.53
2022-09-16T16:45:16.930Z,3.38
2022-09-16T16:47:44.695Z,3.92
2022-09-16T16:50:12.270Z,4.75
2022-09-16T16:52:39.695Z,2.95
2022-09-16T16:55:08.109Z,4.63
2022-09-16T16:57:35.648Z,2.50
2022-09-16T17:00:05.396Z,7.43
2022-09-16T17:02:33.032Z,2.92
2022-09-16T17:05:00.624Z,3.92
2022-09-16T17:07:29.269Z,2.17
2022-09-16T17:10:00.134Z,4.65
2022-09-16T17:12:27.823Z,3.03
2022-09-16T17:14:55.224Z,2.55
2022-09-16T17:17:25.266Z,2.25
2022-09-16T17:19:55.429Z,4.60
2022-09-16T17:22:23.457Z,3.08
2022-09-16T17:24:51.028Z,2.03
2022-09-16T17:27:20.754Z,2.35
2022-09-16T17:29:48.212Z,3.85
2022-09-16T17:32:16.412Z,5.25
2022-09-16T17:34:44.034Z,5.13
2022-09-16T17:37:13.596Z,4.63
2022-09-16T17:39:41.689Z,2.88
2022-09-16T17:42:09.184Z,3.03
2022-09-16T17:44:36.633Z,5.38
2022-09-16T17:47:04.180Z,2.85
2022-09-16T17:49:32.121Z,4.10
2022-09-16T17:51:59.616Z,3.50
2022-09-16T17:54:26.895Z,7.45
2022-09-16T17:56:54.425Z,21.30
2022-09-16T17:59:22.110Z,3.55
2022-09-16T18:01:51.260Z,4.25
2022-09-16T18:04:18.891Z,6.45
2022-09-16T18:06:47.330Z,8.73
2022-09-16T18:09:16.734Z,11.57
2022-09-16T18:11:45.225Z,3.17
2022-09-16T18:14:16.465Z,4.03
2022-09-16T18:16:47.170Z,4.53
2022-09-16T18:19:14.644Z,8.15
2022-09-16T18:21:42.080Z,6.00
2022-09-16T18:24:13.354Z,5.70
2022-09-16T18:26:42.561Z,5.35
2022-09-16T18:29:14.064Z,6.53
2022-09-16T18:31:47.494Z,8.00
2022-09-16T18:34:16.638Z,9.88
2022-09-16T18:36:44.753Z,12.52
2022-09-16T18:39:16.025Z,8.45
2022-09-16T18:41:45.752Z,15.23
2022-09-16T18:44:17.795Z,8.40
2022-09-16T18:46:45.413Z,7.35
2022-09-16T18:49:16.350Z,9.77
2022-09-16T18:51:51.358Z,11.45
2022-09-16T18:54:29.978Z,5.38
2022-09-16T18:57:00.133Z,7.38
2022-09-16T18:59:30.758Z,6.25
2022-09-16T19:02:01.324Z,5.18
2022-09-16T19:04:34.218Z,11.30
2022-09-16T19:07:08.368Z,13.65
2022-09-16T19:09:39.980Z,11.30
2022-09-16T19:12:12.791Z,20.88
2022-09-16T19:14:41.129Z,17.77
2022-09-16T19:17:09.152Z,10.50
2022-09-16T19:19:36.505Z,10.30
2022-09-16T19:22:06.246Z,19.17
2022-09-16T19:24:34.716Z,21.67
2022-09-16T19:27:02.357Z,37.80
2022-09-16T19:29:30.148Z,36.45
2022-09-16T19:31:58.647Z,40.95
2022-09-16T19:34:26.204Z,34.58
2022-09-16T19:36:56.532Z,30.70
2022-09-16T19:39:24.950Z,37.40
2022-09-16T19:41:52.585Z,28.45
2022-09-16T19:44:20.313Z,28.88
2022-09-16T19:46:49.577Z,25.10
2022-09-16T19:49:22.953Z,25.38
2022-09-16T19:51:53.015Z,28.23
2022-09-16T19:54:21.051Z,33.50
2022-09-16T19:56:50.842Z,24.00
2022-09-16T19:59:19.422Z,22.27
2022-09-16T20:01:48.193Z,25.17
2022-09-16T20:04:19.986Z,18.83
2022-09-16T20:06:48.577Z,21.55
2022-09-16T20:09:17.235Z,20.85
2022-09-16T20:11:47.422Z,19.42
2022-09-16T20:14:19.228Z,16.50
2022-09-16T20:16:48.481Z,21.15
2022-09-16T20:19:20.409Z,14.45
2022-09-16T20:21:48.194Z,17.63
2022-09-16T20:24:19.404Z,18.45
2022-09-16T20:26:52.684Z,16.25
2022-09-16T20:29:21.067Z,18.02
2022-09-16T20:31:50.929Z,15.05
2022-09-16T20:34:18.927Z,15.32
2022-09-16T20:36:46.779Z,14.23
2022-09-16T20:39:15.138Z,11.75
2022-09-16T20:41:46.668Z,15.00
2022-09-16T20:44:15.969Z,12.80
2022-09-16T20:46:44.024Z,15.85
2022-09-16T20:49:18.086Z,18.75
2022-09-16T20:51:46.321Z,19.52
2022-09-16T20:54:15.685Z,16.23
2022-09-16T20:56:46.791Z,16.90
2022-09-16T20:59:20.508Z,18.05
2022-09-16T21:01:49.598Z,10.13
2022-09-16T21:04:20.465Z,10.68
2022-09-16T21:06:48.515Z,12.90
2022-09-16T21:09:16.949Z,12.43
2022-09-16T21:11:45.326Z,11.50
2022-09-16T21:14:16.636Z,10.40
2022-09-16T21:16:46.343Z,11.38
2022-09-16T21:19:14.614Z,12.55
2022-09-16T21:21:44.814Z,12.98
2022-09-16T21:24:13.384Z,9.90
2022-09-16T21:26:42.273Z,9.98
2022-09-16T21:29:15.543Z,10.98
2022-09-16T21:31:43.832Z,9.90
2022-09-16T21:34:18.523Z,6.00
2022-09-16T21:39:16.244Z,8.32
2022-09-16T21:41:45.332Z,9.65
2022-09-16T21:44:14.738Z,9.13
2022-09-16T21:46:45.606Z,7.18
2022-09-16T21:49:23.004Z,12.00
2022-09-16T21:51:56.133Z,9.15
2022-09-16T21:54:25.369Z,11.07
2022-09-16T21:56:53.313Z,10.77
2022-09-16T21:59:20.995Z,13.48
2022-09-16T22:01:50.691Z,10.90
2022-09-16T22:04:22.833Z,11.38
2022-09-16T22:06:52.926Z,12.93
2022-09-16T22:09:20.810Z,12.75
2022-09-16T22:11:48.579Z,11.25
2022-09-16T22:14:17.159Z,12.13
2022-09-16T22:16:45.097Z,13.98
2022-09-16T22:19:16.463Z,11.10
2022-09-16T22:21:46.879Z,12.68
2022-09-16T22:24:17.560Z,13.45
2022-09-16T22:26:44.891Z,11.68
2022-09-16T22:29:13.472Z,13.45
2022-09-16T22:31:42.270Z,10.75
2022-09-16T22:34:10.511Z,13.85
2022-09-16T22:36:39.265Z,11.40
2022-09-16T22:39:12.244Z,9.93
2022-09-16T22:41:39.754Z,7.22
2022-09-16T22:44:07.722Z,7.60
2022-09-16T22:46:45.447Z,8.00
2022-09-16T22:49:14.660Z,8.27
2022-09-16T22:51:42.893Z,6.28
2022-09-16T22:54:13.109Z,6.70
2022-09-16T22:56:41.509Z,7.40
2022-09-16T22:59:19.792Z,8.40
2022-09-16T23:01:48.324Z,8.30
2022-09-16T23:04:16.229Z,7.20
2022-09-16T23:06:43.791Z,6.75
2022-09-16T23:09:13.146Z,6.60
2022-09-16T23:11:40.560Z,5.53
2022-09-16T23:14:10.941Z,7.75
2022-09-16T23:16:38.673Z,6.28
2022-09-16T23:19:10.610Z,6.15
2022-09-16T23:21:38.949Z,7.35
2022-09-16T23:24:09.649Z,5.63
2022-09-16T23:26:38.770Z,5.28
2022-09-16T23:29:09.678Z,6.38
2022-09-16T23:31:41.553Z,5.93
2022-09-16T23:34:20.492Z,3.70
2022-09-16T23:36:49.336Z,7.22
2022-09-16T23:39:17.989Z,6.50
2022-09-16T23:41:46.067Z,5.97
2022-09-16T23:44:15.879Z,5.28
2022-09-16T23:46:44.245Z,3.97
2022-09-16T23:49:12.735Z,5.80
2022-09-16T23:51:40.300Z,4.28
2022-09-16T23:54:08.020Z,3.92
2022-09-16T23:56:35.598Z,3.38
2022-09-16T23:59:02.992Z,7.00
